Time;durP1;ratioP1;P1;durP2;ratioP2;P2;SDS_P1;SDS_P2;PMS_P1;PMS_P2;Temp;Humidity;BMP_temperature;BMP_pressure;BME280_temperature;BME280_humidity;BME280_pressure;Samples;Min_cycle;Max_cycle;Signal;HPM_P1;HPM_P2
2023/06/03 00:00:53;;;;;;;2.83;1.02;;;11.60;75.30;;;;;;4998123;28;20022;-45
2023/06/03 00:03:21;;;;;;;2.45;1.00;;;11.50;75.70;;;;;;5015463;28;20026;-45
2023/06/03 00:05:47;;;;;;;2.33;0.93;;;11.50;75.80;;;;;;5015778;28;20105;-44
2023/06/03 00:08:14;;;;;;;4.70;1.20;;;11.50;75.90;;;;;;5030058;28;20493;-45
2023/06/03 00:10:40;;;;;;;4.50;1.23;;;11.40;76.10;;;;;;5035387;28;20336;-46
2023/06/03 00:13:07;;;;;;;2.30;0.98;;;11.40;76.30;;;;;;5035072;28;20068;-46
2023/06/03 00:15:33;;;;;;;2.80;1.20;;;11.30;76.50;;;;;;5025037;28;20030;-45
2023/06/03 00:18:04;;;;;;;4.68;1.30;;;11.20;76.50;;;;;;5015564;28;20110;-44
2023/06/03 00:20:36;;;;;;;2.53;1.02;;;11.20;76.70;;;;;;5015448;28;20403;-47
2023/06/03 00:23:06;;;;;;;2.92;1.33;;;11.20;76.90;;;;;;5015211;28;20433;-45
2023/06/03 00:25:34;;;;;;;3.78;1.35;;;11.20;76.90;;;;;;5021918;28;20121;-47
2023/06/03 00:28:01;;;;;;;1.40;0.80;;;11.20;77.20;;;;;;5035250;28;20108;-45
2023/06/03 00:30:28;;;;;;;2.88;1.10;;;11.10;77.30;;;;;;5035139;28;20413;-44
2023/06/03 00:32:56;;;;;;;2.83;1.67;;;11.10;77.60;;;;;;5030161;28;20026;-45
2023/06/03 00:35:23;;;;;;;4.32;1.00;;;11.10;77.70;;;;;;5014947;28;20037;-47
2023/06/03 00:37:50;;;;;;;2.30;0.98;;;11.00;78.10;;;;;;5014462;28;21090;-44
2023/06/03 00:40:16;;;;;;;2.25;0.90;;;10.90;78.40;;;;;;5013982;28;20033;-46
2023/06/03 00:42:43;;;;;;;3.95;1.00;;;11.00;78.30;;;;;;5013946;28;20501;-44
2023/06/03 00:45:10;;;;;;;7.55;1.73;;;11.00;78.40;;;;;;5013927;28;20121;-45
2023/06/03 00:47:38;;;;;;;2.55;1.20;;;11.10;77.80;;;;;;5015036;28;20117;-44
2023/06/03 00:50:09;;;;;;;4.82;1.05;;;11.10;77.50;;;;;;5014759;28;20116;-45
2023/06/03 00:52:38;;;;;;;3.00;1.00;;;11.10;77.30;;;;;;5013427;28;20099;-45
2023/06/03 00:55:08;;;;;;;4.72;1.20;;;11.10;77.00;;;;;;5014757;28;20037;-45
2023/06/03 00:57:37;;;;;;;2.47;0.90;;;11.10;76.70;;;;;;5015049;28;20038;-44
2023/06/03 01:00:11;;;;;;;2.60;1.00;;;11.20;76.70;;;;;;5014603;28;20030;-45
2023/06/03 01:02:43;;;;;;;3.00;1.20;;;11.10;76.40;;;;;;5016769;28;20367;-45
2023/06/03 01:05:12;;;;;;;3.25;1.20;;;11.20;76.20;;;;;;5034874;28;20376;-45
2023/06/03 01:07:49;;;;;;;2.70;0.93;;;11.10;76.00;;;;;;5018846;28;20411;-44
2023/06/03 01:10:24;;;;;;;2.75;1.23;;;11.10;76.00;;;;;;5029986;28;20117;-44
2023/06/03 01:13:21;;;;;;;3.95;1.05;;;11.10;75.90;;;;;;5014246;28;20083;-45
2023/06/03 01:15:53;;;;;;;3.17;1.20;;;11.10;76.10;;;;;;5014298;28;20098;-46
2023/06/03 01:18:23;;;;;;;1.70;0.80;;;11.10;76.50;;;;;;5013523;28;20525;-46
2023/06/03 01:20:51;;;;;;;2.20;1.25;;;11.00;76.90;;;;;;5013349;28;20066;-45
2023/06/03 01:23:21;;;;;;;1.38;0.73;;;10.90;77.40;;;;;;5014114;28;20092;-44
2023/06/03 01:25:50;;;;;;;3.67;1.10;;;10.90;77.60;;;;;;5014080;28;20030;-44
2023/06/03 01:28:20;;;;;;;3.03;0.90;;;10.90;77.80;;;;;;5014231;28;20025;-45
2023/06/03 01:30:53;;;;;;;2.40;1.10;;;10.90;78.00;;;;;;5013919;28;20033;-46
2023/06/03 01:33:25;;;;;;;4.22;1.73;;;10.80;78.50;;;;;;5014168;28;20022;-46
2023/06/03 01:35:53;;;;;;;2.15;1.02;;;10.80;78.80;;;;;;5013834;28;20124;-45
2023/06/03 01:38:24;;;;;;;2.00;1.08;;;10.80;78.80;;;;;;5023064;28;20105;-45
2023/06/03 01:40:52;;;;;;;1.80;0.80;;;10.80;78.80;;;;;;5029740;28;20471;-45
2023/06/03 01:43:19;;;;;;;1.83;0.88;;;10.70;79.10;;;;;;5014065;28;20489;-46
2023/06/03 01:45:46;;;;;;;3.45;1.20;;;10.70;79.10;;;;;;5012988;28;20043;-44
2023/06/03 01:48:13;;;;;;;4.00;1.00;;;10.60;79.10;;;;;;5012688;28;20034;-45
2023/06/03 01:50:44;;;;;;;2.20;0.98;;;10.60;79.50;;;;;;5028415;28;20026;-45
2023/06/03 01:53:11;;;;;;;1.95;0.90;;;10.60;79.50;;;;;;5033298;28;20029;-45
2023/06/03 01:55:38;;;;;;;2.67;0.73;;;10.60;79.60;;;;;;5015960;28;20017;-45
2023/06/03 01:58:07;;;;;;;5.15;1.05;;;10.60;79.50;;;;;;5013409;28;20026;-44
2023/06/03 02:00:34;;;;;;;4.05;1.20;;;10.60;79.70;;;;;;5013719;28;20037;-44
2023/06/03 02:03:04;;;;;;;2.60;1.05;;;10.50;79.70;;;;;;5018252;28;20030;-45
2023/06/03 02:05:31;;;;;;;2.45;1.13;;;10.50;79.80;;;;;;5012403;28;20041;-44
2023/06/03 02:07:58;;;;;;;3.70;1.00;;;10.50;79.80;;;;;;5014753;28;20107;-44
2023/06/03 02:10:26;;;;;;;1.98;1.17;;;10.50;79.80;;;;;;5033039;28;20350;-44
2023/06/03 02:12:52;;;;;;;2.22;0.93;;;10.50;80.00;;;;;;5032533;28;20038;-45
2023/06/03 02:15:18;;;;;;;2.03;0.95;;;10.50;80.20;;;;;;5023740;28;20104;-43
2023/06/03 02:17:44;;;;;;;3.53;1.20;;;10.50;80.20;;;;;;5012487;28;20424;-44
2023/06/03 02:20:11;;;;;;;2.33;1.00;;;10.40;80.20;;;;;;5012891;28;20372;-45
2023/06/03 02:22:38;;;;;;;3.47;0.85;;;10.40;80.30;;;;;;5012799;28;20028;-44
2023/06/03 02:25:06;;;;;;;3.40;1.65;;;10.40;80.40;;;;;;5013183;28;20101;-45
2023/06/03 02:27:33;;;;;;;1.67;0.70;;;10.40;80.40;;;;;;5013272;28;20022;-44
2023/06/03 02:30:00;;;;;;;4.50;1.20;;;10.40;80.60;;;;;;5012285;28;20066;-46
2023/06/03 02:32:27;;;;;;;4.70;1.02;;;10.40;81.00;;;;;;5013141;28;20349;-45
2023/06/03 02:34:54;;;;;;;2.58;1.08;;;10.40;81.10;;;;;;5013075;28;20033;-44
2023/06/03 02:37:20;;;;;;;2.05;0.90;;;10.40;81.10;;;;;;5012098;28;20026;-44
2023/06/03 02:39:47;;;;;;;1.67;0.90;;;10.40;81.10;;;;;;5013118;28;20030;-43
2023/06/03 02:42:14;;;;;;;3.17;0.95;;;10.40;81.20;;;;;;5013225;28;20057;-44
2023/06/03 02:44:39;;;;;;;1.98;0.95;;;10.30;81.40;;;;;;5012916;28;20052;-45
2023/06/03 02:47:07;;;;;;;2.25;0.88;;;10.30;81.50;;;;;;5013000;28;20427;-44
2023/06/03 02:49:34;;;;;;;2.67;1.08;;;10.30;81.40;;;;;;5013170;28;20057;-45
2023/06/03 02:52:00;;;;;;;2.40;1.00;;;10.30;81.50;;;;;;5013499;28;20387;-44
2023/06/03 02:54:27;;;;;;;2.53;0.90;;;10.30;81.80;;;;;;5012934;28;20034;-44
2023/06/03 02:56:57;;;;;;;1.88;0.93;;;10.30;81.70;;;;;;5012965;28;20022;-45
2023/06/03 02:59:22;;;;;;;2.88;0.90;;;10.30;81.90;;;;;;5013017;28;20030;-44
2023/06/03 03:01:50;;;;;;;4.30;1.10;;;10.30;81.80;;;;;;5013158;28;20037;-44
2023/06/03 03:04:16;;;;;;;2.05;0.80;;;10.20;82.20;;;;;;5012007;28;20030;-43
2023/06/03 03:06:44;;;;;;;3.78;1.63;;;10.20;82.10;;;;;;5028718;28;20071;-44
2023/06/03 03:09:10;;;;;;;2.30;1.08;;;10.20;82.20;;;;;;5031995;28;20037;-43
2023/06/03 03:11:36;;;;;;;4.18;1.48;;;10.20;82.30;;;;;;5032640;28;20514;-44
2023/06/03 03:14:06;;;;;;;4.20;2.08;;;10.20;82.40;;;;;;5016440;28;20038;-45
2023/06/03 03:16:33;;;;;;;3.15;1.00;;;10.20;82.60;;;;;;5013218;28;20037;-45
2023/06/03 03:19:00;;;;;;;5.57;1.10;;;10.20;82.60;;;;;;5012963;28;20471;-45
2023/06/03 03:21:27;;;;;;;1.58;0.63;;;10.20;82.60;;;;;;5012747;28;20037;-44
2023/06/03 03:23:53;;;;;;;2.13;1.13;;;10.10;82.60;;;;;;5012798;28;20041;-44
2023/06/03 03:26:26;;;;;;;1.88;0.93;;;10.10;82.70;;;;;;5018107;28;20029;-45
2023/06/03 03:28:56;;;;;;;2.58;1.02;;;10.10;82.80;;;;;;5031255;28;20022;-44
2023/06/03 03:31:26;;;;;;;5.75;0.98;;;10.10;82.90;;;;;;5031835;28;20025;-44
2023/06/03 03:33:52;;;;;;;3.90;1.73;;;10.20;82.90;;;;;;5032513;28;20505;-44
2023/06/03 03:36:22;;;;;;;2.13;0.90;;;10.10;82.80;;;;;;5016366;28;20104;-44
2023/06/03 03:39:01;;;;;;;4.90;1.37;;;10.20;82.80;;;;;;5016090;28;20440;-45
2023/06/03 03:41:28;;;;;;;;;;;10.10;82.90;;;;;;5015641;28;20319;-43
2023/06/03 03:43:56;;;;;;;2.47;1.10;;;10.10;82.90;;;;;;5016377;28;20327;-44
2023/06/03 03:46:25;;;;;;;5.68;1.40;;;10.10;83.10;;;;;;5015123;28;20038;-45
2023/06/03 03:48:52;;;;;;;4.00;1.55;;;10.00;83.30;;;;;;5014707;28;20038;-44
2023/06/03 03:51:19;;;;;;;2.80;1.50;;;10.10;83.40;;;;;;5016070;28;20037;-43
2023/06/03 03:53:50;;;;;;;1.77;0.88;;;10.10;83.50;;;;;;5015621;28;20045;-44
2023/06/03 03:56:23;;;;;;;3.78;1.85;;;10.00;83.60;;;;;;5015784;28;20022;-45
2023/06/03 03:58:53;;;;;;;3.00;1.40;;;10.10;83.60;;;;;;5015738;28;20450;-43
2023/06/03 04:01:22;;;;;;;;;;;10.10;83.70;;;;;;5016420;28;20026;-46
2023/06/03 04:03:52;;;;;;;2.85;1.02;;;10.10;83.90;;;;;;5027787;28;19909;-43
2023/06/03 04:06:30;;;;;;;2.75;1.35;;;10.10;84.00;;;;;;5034558;28;20065;-43
2023/06/03 04:08:56;;;;;;;1.55;0.88;;;10.10;84.00;;;;;;5028334;28;20479;-44
2023/06/03 04:11:30;;;;;;;2.53;1.00;;;10.10;84.20;;;;;;5031124;28;20030;-44
2023/06/03 04:13:58;;;;;;;1.52;0.70;;;10.20;84.40;;;;;;5015206;28;20041;-43
2023/06/03 04:16:51;;;;;;;2.60;1.40;;;10.20;84.50;;;;;;5015446;28;20030;-44
2023/06/03 04:19:41;;;;;;;3.08;1.17;;;10.30;84.60;;;;;;5015440;28;20026;-44
2023/06/03 04:22:08;;;;;;;3.15;1.00;;;10.30;84.80;;;;;;5026378;28;20017;-46
2023/06/03 04:24:37;;;;;;;2.88;1.40;;;10.40;84.80;;;;;;5033949;28;20044;-44
2023/06/03 04:27:06;;;;;;;2.00;0.88;;;10.50;84.70;;;;;;5035195;28;20030;-45
2023/06/03 04:29:33;;;;;;;5.72;1.33;;;10.60;84.80;;;;;;5034513;28;20329;-44
2023/06/03 04:32:00;;;;;;;1.95;0.98;;;10.70;84.70;;;;;;5023878;28;20025;-44
2023/06/03 04:34:28;;;;;;;1.88;1.00;;;10.90;84.60;;;;;;5015077;28;20424;-45
2023/06/03 04:36:54;;;;;;;2.15;1.10;;;11.00;84.20;;;;;;5030061;28;20041;-44
2023/06/03 04:39:21;;;;;;;1.90;0.80;;;11.20;84.20;;;;;;5032353;28;20021;-43
2023/06/03 04:41:49;;;;;;;3.58;1.30;;;11.40;83.70;;;;;;5030303;28;20026;-44
2023/06/03 04:44:16;;;;;;;4.75;1.10;;;11.50;82.80;;;;;;5014755;28;20046;-44
2023/06/03 04:46:49;;;;;;;3.47;0.85;;;11.70;82.70;;;;;;5019253;28;20025;-43
2023/06/03 04:49:16;;;;;;;3.45;1.25;;;11.80;82.20;;;;;;5034695;28;20087;-44
2023/06/03 04:51:44;;;;;;;2.33;0.82;;;11.90;81.80;;;;;;5033219;28;20037;-44
2023/06/03 04:54:10;;;;;;;2.08;1.20;;;11.90;81.30;;;;;;5033861;28;20116;-46
2023/06/03 04:56:37;;;;;;;1.67;1.00;;;11.90;81.20;;;;;;5014855;28;20532;-43
2023/06/03 04:59:07;;;;;;;3.70;1.50;;;11.90;81.10;;;;;;5013864;28;20099;-47
2023/06/03 05:01:36;;;;;;;4.20;1.58;;;12.00;80.20;;;;;;5029310;28;20352;-45
2023/06/03 05:04:08;;;;;;;3.03;1.02;;;12.00;80.00;;;;;;5013827;28;20363;-47
2023/06/03 05:06:36;;;;;;;4.15;1.13;;;12.00;79.20;;;;;;5014482;28;20037;-44
2023/06/03 05:09:03;;;;;;;2.58;1.00;;;12.10;78.80;;;;;;5014513;28;20050;-44
2023/06/03 05:11:29;;;;;;;2.53;1.10;;;12.10;78.30;;;;;;5013645;28;20030;-44
2023/06/03 05:13:56;;;;;;;3.33;1.25;;;12.20;77.80;;;;;;5014307;28;20117;-44
2023/06/03 05:16:23;;;;;;;3.92;1.27;;;12.30;76.70;;;;;;5026977;28;20037;-44
2023/06/03 05:18:50;;;;;;;3.45;0.90;;;12.30;75.60;;;;;;5034090;28;20036;-43
2023/06/03 05:21:19;;;;;;;4.50;1.27;;;12.40;75.60;;;;;;5034068;28;20072;-45
2023/06/03 05:23:46;;;;;;;2.75;1.40;;;12.40;75.00;;;;;;5033633;28;20030;-45
2023/06/03 05:26:15;;;;;;;2.65;1.10;;;12.40;74.60;;;;;;5019474;28;20033;-44
2023/06/03 05:28:43;;;;;;;2.30;1.02;;;12.40;74.60;;;;;;5013136;28;20570;-46
2023/06/03 05:31:12;;;;;;;3.70;1.50;;;12.40;73.20;;;;;;5029542;28;20048;-45
2023/06/03 05:33:40;;;;;;;1.52;0.95;;;12.50;73.20;;;;;;5013814;28;20112;-44
2023/06/03 05:36:08;;;;;;;2.05;1.20;;;12.40;72.30;;;;;;5014310;28;20029;-44
2023/06/03 05:38:34;;;;;;;3.10;0.93;;;12.50;71.40;;;;;;5013168;28;20335;-43
2023/06/03 05:41:04;;;;;;;4.40;1.35;;;12.50;71.20;;;;;;5013991;28;20366;-46
2023/06/03 05:43:30;;;;;;;2.47;0.88;;;12.60;70.80;;;;;;5014065;28;20076;-45
2023/06/03 05:45:59;;;;;;;4.63;1.13;;;12.70;69.80;;;;;;5013648;28;20034;-48
2023/06/03 05:48:26;;;;;;;1.85;0.85;;;12.90;69.70;;;;;;5013893;28;20030;-45
2023/06/03 05:50:54;;;;;;;2.40;0.82;;;13.20;69.00;;;;;;5013767;28;20022;-43
2023/06/03 05:53:23;;;;;;;3.58;0.90;;;13.60;67.90;;;;;;5014054;28;20053;-44
2023/06/03 05:55:51;;;;;;;4.40;1.55;;;14.10;67.30;;;;;;5012491;28;20101;-45
2023/06/03 05:58:19;;;;;;;2.92;0.90;;;14.50;65.10;;;;;;5013112;28;20026;-44
2023/06/03 06:00:46;;;;;;;3.45;1.02;;;14.80;61.40;;;;;;5028103;28;20409;-46
2023/06/03 06:03:16;;;;;;;1.77;0.80;;;15.10;61.40;;;;;;5033513;28;20474;-46
2023/06/03 06:05:42;;;;;;;3.80;1.10;;;15.40;61.00;;;;;;5028612;28;20096;-45
2023/06/03 06:08:11;;;;;;;1.45;0.73;;;15.50;59.80;;;;;;5013390;28;20578;-46
2023/06/03 06:10:37;;;;;;;2.83;1.23;;;15.60;59.50;;;;;;5013512;28;20030;-44
2023/06/03 06:13:04;;;;;;;2.90;1.15;;;15.60;57.60;;;;;;5013929;28;20379;-44
2023/06/03 06:15:31;;;;;;;3.22;0.85;;;15.60;56.90;;;;;;5013544;28;20038;-46
2023/06/03 06:17:58;;;;;;;1.70;1.00;;;15.70;57.00;;;;;;5013435;28;20057;-45
2023/06/03 06:20:25;;;;;;;2.95;1.30;;;15.80;56.30;;;;;;5013243;28;20034;-45
2023/06/03 06:22:53;;;;;;;1.92;0.80;;;15.70;56.50;;;;;;5013166;28;20026;-46
2023/06/03 06:25:19;;;;;;;2.85;0.90;;;15.80;57.00;;;;;;5013500;28;20088;-46
2023/06/03 06:27:47;;;;;;;2.42;0.82;;;15.80;56.70;;;;;;5013283;28;20030;-47
2023/06/03 06:30:14;;;;;;;1.80;0.65;;;15.70;56.00;;;;;;5013218;28;20068;-46
2023/06/03 06:32:48;;;;;;;1.92;0.75;;;15.80;56.50;;;;;;5012131;28;20025;-46
2023/06/03 06:35:17;;;;;;;1.65;0.80;;;15.90;56.10;;;;;;5026168;28;20095;-45
2023/06/03 06:37:45;;;;;;;1.52;0.65;;;15.90;56.40;;;;;;5033050;28;20025;-45
2023/06/03 06:40:19;;;;;;;2.58;0.90;;;16.00;57.60;;;;;;5017281;28;20037;-47
2023/06/03 06:42:47;;;;;;;1.85;0.90;;;16.00;56.60;;;;;;5012161;28;20084;-46
2023/06/03 06:45:25;;;;;;;2.85;0.93;;;16.00;56.50;;;;;;5013317;28;20064;-45
2023/06/03 06:48:08;;;;;;;2.00;1.00;;;16.00;56.90;;;;;;5013026;28;20036;-44
2023/06/03 06:50:56;;;;;;;3.03;0.80;;;16.00;54.30;;;;;;5012625;28;20033;-45
2023/06/03 06:53:24;;;;;;;1.77;0.70;;;16.00;54.50;;;;;;5012980;28;20541;-45
2023/06/03 06:56:08;;;;;;;1.75;0.80;;;16.10;55.00;;;;;;5013255;28;20419;-46
2023/06/03 06:58:39;;;;;;;2.97;1.05;;;16.20;53.80;;;;;;5017249;28;20022;-45
2023/06/03 07:01:06;;;;;;;2.15;1.00;;;16.30;51.90;;;;;;5027578;28;20470;-46
2023/06/03 07:03:38;;;;;;;2.58;1.02;;;16.30;52.90;;;;;;5028144;28;20416;-46
2023/06/03 07:06:04;;;;;;;2.47;1.23;;;16.40;55.00;;;;;;5012935;28;20674;-48
2023/06/03 07:08:31;;;;;;;2.25;1.08;;;16.60;54.60;;;;;;5014378;28;20353;-47
2023/06/03 07:11:02;;;;;;;1.60;0.80;;;16.90;54.60;;;;;;5016577;28;20526;-45
2023/06/03 07:13:29;;;;;;;3.53;0.80;;;17.10;53.10;;;;;;5016965;28;20439;-46
2023/06/03 07:15:55;;;;;;;2.35;0.98;;;17.30;53.10;;;;;;5016635;28;20018;-46
2023/06/03 07:18:22;;;;;;;2.22;0.98;;;17.40;51.60;;;;;;5016789;28;20037;-45
2023/06/03 07:20:51;;;;;;;1.08;0.50;;;17.50;52.30;;;;;;5015873;28;20076;-45
2023/06/03 07:23:25;;;;;;;5.20;1.33;;;17.80;51.90;;;;;;5016634;28;20034;-46
2023/06/03 07:25:54;;;;;;;1.45;0.70;;;18.00;49.90;;;;;;5016601;28;20033;-46
2023/06/03 07:28:31;;;;;;;;;;;18.20;50.60;;;;;;5032262;28;20499;-47
2023/06/03 07:31:05;;;;;;;2.63;0.68;;;18.50;48.10;;;;;;5016328;28;19905;-46
2023/06/03 07:33:42;;;;;;;1.55;0.65;;;18.60;45.50;;;;;;5016339;28;20026;-46
2023/06/03 07:36:09;;;;;;;2.05;0.98;;;18.50;44.70;;;;;;5034418;28;20067;-45
2023/06/03 07:39:02;;;;;;;3.15;0.90;;;18.40;44.30;;;;;;5034382;28;20025;-46
2023/06/03 07:41:52;;;;;;;2.20;0.90;;;18.50;47.30;;;;;;5035018;28;20088;-45
2023/06/03 07:44:55;;;;;;;5.72;2.92;;;18.80;47.60;;;;;;5025714;28;20076;-50
2023/06/03 07:47:25;;;;;;;4.75;2.17;;;19.20;48.60;;;;;;5015777;28;20088;-46
2023/06/03 07:49:53;;;;;;;7.25;2.83;;;19.40;47.00;;;;;;5015848;28;20113;-45
2023/06/03 07:52:21;;;;;;;3.20;1.50;;;19.80;48.00;;;;;;5014907;28;20467;-45
2023/06/03 07:54:49;;;;;;;2.83;1.08;;;20.30;48.40;;;;;;5015459;28;20038;-46
2023/06/03 07:57:16;;;;;;;2.08;0.80;;;20.90;45.20;;;;;;5015507;28;20057;-45
2023/06/03 08:00:01;;;;;;;3.65;0.80;;;21.50;43.60;;;;;;5014377;28;20510;-46
2023/06/03 08:02:31;;;;;;;4.93;1.10;;;22.40;40.70;;;;;;5015024;28;20451;-47
2023/06/03 08:05:00;;;;;;;3.08;1.00;;;22.80;42.80;;;;;;5015050;28;20364;-47
2023/06/03 08:07:27;;;;;;;2.25;0.70;;;23.10;36.10;;;;;;5014477;28;20057;-46
2023/06/03 08:09:55;;;;;;;3.22;0.93;;;23.60;38.60;;;;;;5003887;28;20030;-46
2023/06/03 08:12:35;;;;;;;2.83;1.45;;;23.90;37.60;;;;;;5015568;28;20061;-46
2023/06/03 08:15:02;;;;;;;4.65;1.00;;;24.40;36.50;;;;;;5015600;28;20037;-47
2023/06/03 08:17:43;;;;;;;3.75;0.90;;;24.30;37.30;;;;;;5015347;28;20018;-47
2023/06/03 08:20:10;;;;;;;5.00;1.55;;;24.20;37.00;;;;;;5014738;28;20017;-46
2023/06/03 08:22:44;;;;;;;3.55;0.93;;;24.50;36.50;;;;;;5014682;28;20348;-48
2023/06/03 08:25:10;;;;;;;3.08;0.93;;;24.40;36.30;;;;;;5015509;28;20148;-46
2023/06/03 08:27:38;;;;;;;3.40;1.27;;;24.40;37.30;;;;;;5015039;28;20022;-46
2023/06/03 08:30:05;;;;;;;1.80;0.77;;;23.80;37.00;;;;;;5015460;28;20049;-46
2023/06/03 08:32:41;;;;;;;1.27;0.55;;;23.70;35.30;;;;;;5015304;28;20494;-49
2023/06/03 08:35:08;;;;;;;1.95;0.77;;;23.80;35.00;;;;;;5015028;28;20034;-46
2023/06/03 08:37:36;;;;;;;2.35;0.77;;;23.90;33.20;;;;;;5015175;28;20018;-46
2023/06/03 08:40:14;;;;;;;1.83;0.70;;;23.90;35.50;;;;;;5015366;28;20097;-47
2023/06/03 08:43:00;;;;;;;4.72;0.60;;;23.80;35.70;;;;;;5014014;28;20380;-48
2023/06/03 08:45:35;;;;;;;2.35;0.73;;;23.70;36.70;;;;;;5014015;28;20040;-47
2023/06/03 08:48:37;;;;;;;1.30;0.68;;;23.60;39.90;;;;;;5014018;28;20026;-49
2023/06/03 08:51:04;;;;;;;2.80;0.90;;;23.50;34.70;;;;;;5014781;28;20160;-46
2023/06/03 08:53:56;;;;;;;2.03;1.05;;;22.90;36.90;;;;;;5014297;28;20022;-48
2023/06/03 08:56:30;;;;;;;1.85;0.90;;;22.70;39.20;;;;;;5015456;28;20487;-46
2023/06/03 08:59:01;;;;;;;2.67;0.80;;;22.40;39.20;;;;;;5014222;28;20471;-47
2023/06/03 09:01:35;;;;;;;2.90;0.93;;;22.70;41.10;;;;;;5014533;28;20032;-45
2023/06/03 09:04:03;;;;;;;3.42;0.80;;;22.70;37.00;;;;;;5013360;28;20030;-45
2023/06/03 09:06:31;;;;;;;1.88;0.70;;;22.70;38.00;;;;;;5014713;28;20387;-47
2023/06/03 09:09:00;;;;;;;2.38;1.08;;;22.80;40.00;;;;;;5014522;28;20046;-46
2023/06/03 09:11:28;;;;;;;3.27;0.80;;;22.70;36.30;;;;;;5014818;28;20037;-46
2023/06/03 09:13:58;;;;;;;1.60;0.70;;;22.90;37.50;;;;;;5014463;28;20289;-46
2023/06/03 09:16:24;;;;;;;1.45;0.68;;;23.00;38.00;;;;;;5014552;28;20022;-46
2023/06/03 09:18:52;;;;;;;2.03;0.70;;;23.10;36.40;;;;;;5014278;28;20025;-47
2023/06/03 09:21:21;;;;;;;1.70;0.90;;;23.10;35.30;;;;;;5014487;28;20026;-48
2023/06/03 09:23:51;;;;;;;4.22;1.02;;;22.90;36.40;;;;;;5014211;28;20436;-47
2023/06/03 09:26:18;;;;;;;2.33;1.00;;;22.70;38.00;;;;;;5014165;28;20459;-48
2023/06/03 09:28:45;;;;;;;2.58;0.73;;;22.40;36.80;;;;;;5014051;28;20038;-47
2023/06/03 09:31:12;;;;;;;2.85;0.82;;;22.50;36.60;;;;;;5013067;28;20041;-50
2023/06/03 09:33:43;;;;;;;2.42;0.68;;;22.90;35.80;;;;;;5013910;28;20557;-47
2023/06/03 09:36:13;;;;;;;3.00;1.45;;;23.00;33.50;;;;;;5013956;28;20069;-47
2023/06/03 09:39:10;;;;;;;1.52;0.63;;;23.20;38.60;;;;;;5014373;28;20440;-49
2023/06/03 09:41:37;;;;;;;2.58;0.75;;;22.70;35.80;;;;;;5014324;28;20038;-48
2023/06/03 09:44:08;;;;;;;4.60;0.80;;;23.00;38.50;;;;;;5013956;28;20439;-47
2023/06/03 09:46:35;;;;;;;2.28;0.80;;;23.20;36.90;;;;;;5012854;28;20049;-49
2023/06/03 09:49:19;;;;;;;1.65;0.52;;;23.10;32.40;;;;;;5014005;28;20384;-47
2023/06/03 09:51:50;;;;;;;4.15;0.70;;;23.20;32.70;;;;;;5013756;28;20038;-47
2023/06/03 09:54:34;;;;;;;0.85;0.52;;;22.90;36.90;;;;;;5013782;28;20026;-47
2023/06/03 09:57:12;;;;;;;3.22;0.80;;;22.90;34.10;;;;;;5012356;28;20080;-47
2023/06/03 09:59:42;;;;;;;1.65;0.60;;;22.60;31.60;;;;;;5012588;28;20474;-47
2023/06/03 10:02:11;;;;;;;1.35;0.60;;;22.80;39.80;;;;;;5013448;28;20113;-48
2023/06/03 10:04:57;;;;;;;2.25;0.80;;;22.80;35.30;;;;;;5015601;28;20143;-47
2023/06/03 10:07:22;;;;;;;3.20;1.02;;;22.60;35.60;;;;;;5033184;28;20347;-48
2023/06/03 10:10:02;;;;;;;1.30;0.65;;;22.70;37.50;;;;;;5021675;28;20041;-48
2023/06/03 10:12:29;;;;;;;3.47;1.13;;;22.70;38.00;;;;;;5027676;28;20378;-48
2023/06/03 10:15:00;;;;;;;1.33;0.60;;;22.20;42.70;;;;;;5013375;28;20363;-47
2023/06/03 10:17:27;;;;;;;3.28;1.08;;;22.50;38.40;;;;;;5016753;28;20052;-47
2023/06/03 10:19:54;;;;;;;3.17;0.93;;;22.40;38.30;;;;;;5031983;28;20025;-51
2023/06/03 10:22:23;;;;;;;3.78;1.00;;;22.50;40.70;;;;;;5025997;28;20033;-48
2023/06/03 10:24:52;;;;;;;2.72;1.42;;;22.70;41.80;;;;;;5012231;28;20029;-47
2023/06/03 10:27:20;;;;;;;1.90;0.70;;;22.60;42.80;;;;;;5012793;28;20030;-47
2023/06/03 10:29:52;;;;;;;2.55;0.73;;;22.40;43.90;;;;;;5012711;28;20034;-47
2023/06/03 10:32:21;;;;;;;4.47;0.80;;;22.00;46.40;;;;;;5028224;28;20030;-48
2023/06/03 10:34:50;;;;;;;4.68;0.63;;;21.90;48.10;;;;;;5012906;28;20060;-48
2023/06/03 10:37:18;;;;;;;2.00;0.50;;;21.60;42.40;;;;;;5025484;28;20359;-47
2023/06/03 10:39:45;;;;;;;4.15;0.93;;;21.60;41.20;;;;;;5032494;28;20343;-47
2023/06/03 10:42:12;;;;;;;4.10;1.17;;;21.90;45.10;;;;;;5031880;28;20396;-47
2023/06/03 10:44:40;;;;;;;3.42;0.70;;;21.90;39.90;;;;;;5036168;28;20037;-49
2023/06/03 10:47:28;;;;;;;2.03;0.90;;;22.00;42.90;;;;;;5019736;28;20038;-47
2023/06/03 10:49:58;;;;;;;6.15;1.00;;;22.00;44.10;;;;;;5016840;28;20088;-48
2023/06/03 10:52:48;;;;;;;2.65;0.88;;;21.70;42.50;;;;;;5016636;28;20045;-48
2023/06/03 10:55:19;;;;;;;;;;;21.60;44.50;;;;;;5016852;28;20160;-47
2023/06/03 10:57:58;;;;;;;3.33;1.00;;;21.80;41.10;;;;;;5015451;28;19917;-47
2023/06/03 11:00:52;;;;;;;1.58;0.55;;;22.00;40.90;;;;;;5016385;28;20087;-47
2023/06/03 11:03:24;;;;;;;3.17;0.93;;;22.00;41.20;;;;;;5016342;28;20510;-47
2023/06/03 11:05:51;;;;;;;6.13;1.20;;;21.90;40.90;;;;;;5016531;28;20042;-49
2023/06/03 11:08:57;;;;;;;3.60;0.93;;;22.00;39.20;;;;;;5016128;28;20537;-47
2023/06/03 11:11:41;;;;;;;2.55;0.80;;;21.90;42.20;;;;;;5024662;28;20062;-47
2023/06/03 11:14:40;;;;;;;0.90;0.47;;;21.80;40.80;;;;;;5015374;28;20030;-47
2023/06/03 11:17:25;;;;;;;2.10;0.77;;;21.90;40.10;;;;;;5015831;28;20026;-48
2023/06/03 11:19:54;;;;;;;1.42;0.57;;;21.60;36.10;;;;;;5016326;28;20110;-47
2023/06/03 11:22:29;;;;;;;1.48;0.70;;;21.40;38.20;;;;;;5015404;28;20087;-47
2023/06/03 11:24:59;;;;;;;1.30;0.60;;;21.40;38.70;;;;;;5022621;28;20025;-49
2023/06/03 11:27:26;;;;;;;;;;;21.10;38.90;;;;;;5036546;28;20032;-47
2023/06/03 11:30:13;;;;;;;3.00;0.63;;;20.90;38.80;;;;;;5018165;28;19921;-47
2023/06/03 11:32:43;;;;;;;1.80;0.70;;;20.90;40.80;;;;;;5016423;28;20061;-46
2023/06/03 11:35:12;;;;;;;4.53;1.00;;;21.20;39.50;;;;;;5015907;28;20030;-46
2023/06/03 11:37:40;;;;;;;5.25;0.93;;;21.00;37.30;;;;;;5015746;28;20040;-47
2023/06/03 11:40:16;;;;;;;1.67;0.70;;;21.00;39.30;;;;;;5016133;28;20026;-46
2023/06/03 11:42:51;;;;;;;2.75;1.27;;;20.90;42.40;;;;;;5015978;28;20037;-47
2023/06/03 11:45:27;;;;;;;2.28;0.70;;;20.80;42.60;;;;;;5014609;28;20505;-46
2023/06/03 11:48:13;;;;;;;2.70;0.70;;;20.80;41.90;;;;;;5014296;28;20439;-47
2023/06/03 11:50:53;;;;;;;2.55;1.02;;;20.60;39.70;;;;;;5014878;28;20021;-47
2023/06/03 11:53:39;;;;;;;2.10;0.80;;;20.50;39.60;;;;;;5016050;28;20052;-46
2023/06/03 11:56:25;;;;;;;3.53;1.00;;;20.40;44.60;;;;;;5014402;28;20100;-46
2023/06/03 11:58:52;;;;;;;2.33;0.95;;;20.40;43.10;;;;;;5015882;28;20014;-45
2023/06/03 12:01:19;;;;;;;4.20;0.75;;;20.40;43.20;;;;;;5015658;28;20026;-49
2023/06/03 12:04:04;;;;;;;4.30;0.70;;;20.20;43.70;;;;;;5014672;28;20030;-46
2023/06/03 12:06:35;;;;;;;1.15;0.52;;;20.30;43.60;;;;;;5014496;28;20029;-46
2023/06/03 12:09:05;;;;;;;2.05;0.60;;;20.30;41.50;;;;;;5015345;28;20046;-46
2023/06/03 12:11:37;;;;;;;1.40;0.50;;;20.00;42.70;;;;;;5029888;28;20099;-48
2023/06/03 12:14:04;;;;;;;3.45;0.75;;;19.90;44.30;;;;;;5034411;28;20029;-46
2023/06/03 12:16:49;;;;;;;3.55;0.70;;;19.90;42.70;;;;;;5035443;28;20032;-46
2023/06/03 12:19:16;;;;;;;3.00;0.60;;;19.90;44.50;;;;;;5034177;28;20033;-46
2023/06/03 12:21:43;;;;;;;3.50;1.10;;;19.80;48.00;;;;;;5015496;28;20041;-46
2023/06/03 12:24:12;;;;;;;2.03;0.68;;;19.80;48.00;;;;;;5015350;28;20038;-48
2023/06/03 12:26:42;;;;;;;1.67;0.63;;;19.90;46.30;;;;;;5015252;28;20047;-46
2023/06/03 12:29:14;;;;;;;2.67;0.63;;;19.80;45.60;;;;;;5015260;28;20076;-46
2023/06/03 12:31:59;;;;;;;3.60;0.80;;;19.70;43.90;;;;;;5015322;28;20025;-47
2023/06/03 12:34:34;;;;;;;4.00;0.77;;;19.90;45.60;;;;;;5015160;28;20336;-47
2023/06/03 12:37:02;;;;;;;2.25;0.73;;;19.80;43.80;;;;;;5014201;28;20046;-46
2023/06/03 12:39:50;;;;;;;3.72;0.90;;;19.50;43.90;;;;;;5030516;28;20585;-46
2023/06/03 12:42:33;;;;;;;5.63;0.90;;;19.50;42.60;;;;;;5023455;28;20443;-46
2023/06/03 12:45:00;;;;;;;2.92;0.77;;;19.40;41.10;;;;;;5014898;28;20076;-48
2023/06/03 12:47:27;;;;;;;2.53;0.70;;;19.40;40.90;;;;;;5015425;28;20403;-46
2023/06/03 12:50:06;;;;;;;6.63;1.10;;;19.40;42.80;;;;;;5014508;28;20061;-47
2023/06/03 12:52:37;;;;;;;5.50;0.65;;;19.20;42.70;;;;;;5014763;28;20459;-50
2023/06/03 12:55:11;;;;;;;2.28;0.43;;;19.30;41.50;;;;;;5015451;28;20038;-47
2023/06/03 12:57:43;;;;;;;0.88;0.50;;;19.20;41.50;;;;;;5014873;28;20022;-48
2023/06/03 13:00:15;;;;;;;2.90;0.77;;;19.30;43.70;;;;;;5013990;28;20040;-48
2023/06/03 13:02:48;;;;;;;3.58;0.60;;;19.30;44.20;;;;;;5015656;28;20109;-47
2023/06/03 13:05:21;;;;;;;2.53;0.77;;;19.40;43.20;;;;;;5014812;28;20034;-50
2023/06/03 13:07:47;;;;;;;4.28;0.88;;;19.30;40.50;;;;;;5013933;28;20124;-46